createdAt,value
2018-11-01T06:39:00.979Z,9.83
2018-11-01T06:41:34.474Z,9.48
2018-11-01T06:44:03.356Z,9.43
2018-11-01T06:46:41.316Z,9.45
2018-11-01T06:49:15.500Z,9.47
2018-11-01T06:51:50.752Z,9.51
2018-11-01T06:54:29.565Z,9.48
2018-11-01T06:57:01.175Z,9.51
2018-11-01T06:59:32.950Z,9.60
2018-11-01T07:02:03.295Z,9.61
2018-11-01T07:04:33.221Z,9.63
2018-11-01T07:07:01.941Z,9.71
2018-11-01T07:09:36.415Z,9.76
2018-11-01T07:12:06.388Z,9.81
2018-11-01T07:14:35.924Z,9.91
2018-11-01T07:17:09.528Z,10.02
2018-11-01T07:19:41.576Z,10.10
2018-11-01T07:22:12.724Z,10.26
2018-11-01T07:24:43.888Z,10.46
2018-11-01T07:27:14.588Z,10.61
2018-11-01T07:29:45.839Z,10.77
2018-11-01T07:32:16.181Z,10.87
2018-11-01T07:34:49.521Z,11.11
2018-11-01T07:37:20.773Z,11.35
2018-11-01T07:49:35.488Z,11.61
2018-11-01T07:52:06.700Z,11.78
2018-11-01T07:54:35.948Z,12.03
2018-11-01T07:57:04.903Z,12.15
2018-11-01T07:59:33.711Z,12.29
2018-11-01T08:02:04.823Z,12.29
2018-11-01T08:04:33.612Z,12.27
2018-11-01T08:07:02.989Z,12.13
2018-11-01T08:09:32.726Z,12.15
2018-11-01T08:12:02.459Z,12.17
2018-11-01T08:14:32.167Z,12.08
2018-11-01T08:17:02.087Z,12.06
2018-11-01T08:19:35.046Z,11.99
2018-11-01T08:22:06.724Z,12.03
2018-11-01T08:24:36.490Z,12.05
2018-11-01T08:27:08.954Z,12.11
2018-11-01T08:29:38.947Z,12.19
2018-11-01T08:32:08.224Z,12.26
2018-11-01T08:34:37.708Z,12.39
2018-11-01T08:37:06.699Z,12.50
2018-11-01T08:39:40.398Z,12.79
2018-11-01T08:42:12.470Z,12.93
2018-11-01T08:44:42.099Z,13.16
2018-11-01T08:47:12.380Z,13.24
2018-11-01T08:49:43.091Z,13.30
2018-11-01T08:52:13.696Z,13.51
2018-11-01T08:54:43.254Z,13.35
2018-11-01T08:57:13.664Z,13.30
2018-11-01T08:59:42.658Z,13.09
2018-11-01T09:02:11.510Z,13.18
2018-11-01T09:04:41.958Z,13.18
2018-11-01T09:07:12.082Z,13.25
2018-11-01T09:09:42.182Z,13.64
2018-11-01T09:12:14.635Z,13.75
2018-11-01T09:14:44.654Z,14.10
2018-11-01T09:17:13.387Z,14.17
2018-11-01T09:19:48.277Z,14.27
2018-11-01T09:22:19.804Z,14.31
2018-11-01T09:24:48.925Z,15.32
2018-11-01T09:27:17.557Z,17.40
2018-11-01T09:29:46.030Z,17.89
2018-11-01T09:32:14.603Z,18.49
2018-11-01T09:34:43.249Z,19.82
2018-11-01T09:37:11.847Z,20.01
2018-11-01T09:39:40.439Z,19.57
2018-11-01T09:42:09.386Z,20.89
2018-11-01T09:44:37.947Z,19.62
2018-11-01T09:47:06.947Z,18.37
2018-11-01T09:49:35.424Z,16.96
2018-11-01T09:52:04.040Z,16.67
2018-11-01T09:54:32.788Z,17.20
2018-11-01T09:57:05.916Z,17.50
2018-11-01T09:59:34.687Z,18.17
2018-11-01T10:02:11.535Z,17.61
2018-11-01T10:04:43.027Z,17.24
2018-11-01T10:07:12.797Z,16.69
2018-11-01T10:09:42.552Z,16.36
2018-11-01T10:12:13.277Z,16.37
2018-11-01T10:14:42.101Z,16.45
2018-11-01T10:17:11.210Z,16.67
2018-11-01T10:19:40.489Z,16.76
2018-11-01T10:22:09.373Z,16.31
2018-11-01T10:24:38.138Z,16.09
2018-11-01T10:27:07.890Z,15.70
2018-11-01T10:29:37.532Z,15.60
2018-11-01T10:32:06.376Z,15.08
2018-11-01T10:34:36.211Z,15.06
2018-11-01T10:37:16.794Z,16.04
2018-11-01T10:39:58.967Z,15.97
2018-11-01T10:42:48.982Z,15.50
2018-11-01T10:45:30.351Z,15.23
2018-11-01T10:48:10.599Z,14.98
2018-11-01T10:50:47.141Z,15.10
2018-11-01T10:53:26.307Z,15.66
2018-11-01T10:56:07.425Z,15.78
2018-11-01T10:58:47.988Z,16.25
2018-11-01T11:01:28.164Z,16.35
2018-11-01T11:04:09.588Z,16.08
2018-11-01T11:06:50.106Z,15.96
2018-11-01T11:09:27.881Z,15.76
2018-11-01T11:12:07.004Z,15.72
2018-11-01T11:14:47.437Z,15.70
2018-11-01T11:17:31.659Z,15.61
2018-11-01T11:20:15.281Z,15.61
2018-11-01T11:22:52.989Z,15.31
2018-11-01T11:25:31.407Z,15.67
2018-11-01T11:28:13.377Z,15.66
2018-11-01T11:30:51.412Z,15.39
2018-11-01T11:33:29.490Z,15.48
2018-11-01T11:36:07.171Z,15.57
2018-11-01T11:38:47.637Z,15.26
2018-11-01T11:41:16.402Z,15.66
2018-11-01T11:43:45.143Z,15.16
2018-11-01T11:46:26.416Z,15.18
2018-11-01T11:49:05.128Z,14.96
2018-11-01T11:51:41.956Z,15.23
2018-11-01T11:54:24.922Z,15.16
2018-11-01T11:57:08.790Z,15.05
2018-11-01T11:59:49.402Z,14.66
2018-11-01T12:02:30.081Z,14.58
2018-11-01T12:05:09.624Z,14.55
2018-11-01T12:07:50.716Z,14.57
2018-11-01T12:10:29.904Z,14.55
2018-11-01T12:13:05.203Z,14.38
2018-11-01T12:17:10.975Z,14.49
2018-11-01T12:19:42.356Z,14.57
2018-11-01T12:22:11.746Z,14.63
2018-11-01T12:24:51.982Z,14.61
2018-11-01T12:27:33.775Z,14.49
2018-11-01T12:30:16.914Z,14.46
2018-11-01T12:33:01.982Z,14.69
2018-11-01T12:35:42.052Z,14.72
2018-11-01T12:38:20.015Z,14.68
2018-11-01T12:40:59.667Z,14.62
2018-11-01T12:43:48.155Z,14.43
2018-11-01T12:46:33.323Z,14.45
2018-11-01T12:52:09.718Z,14.21
2018-11-01T12:54:51.057Z,14.13
2018-11-01T12:57:29.865Z,14.08
2018-11-01T13:00:09.943Z,14.08
2018-11-01T13:02:50.013Z,14.09
2018-11-01T13:05:36.371Z,14.10
2018-11-01T13:08:19.306Z,14.00
2018-11-01T13:11:05.721Z,13.96
2018-11-01T13:13:49.666Z,13.91
2018-11-01T13:16:37.273Z,14.01
2018-11-01T13:19:18.198Z,14.04
2018-11-01T13:21:59.041Z,13.82
2018-11-01T13:24:40.883Z,13.82
2018-11-01T13:27:23.607Z,13.74
2018-11-01T13:30:02.489Z,13.75
2018-11-01T13:32:40.571Z,13.86
2018-11-01T13:35:24.842Z,13.93
2018-11-01T13:38:04.232Z,13.88
2018-11-01T13:40:44.252Z,13.83
2018-11-01T13:43:16.333Z,13.80
2018-11-01T13:45:45.355Z,13.78
2018-11-01T13:48:25.085Z,13.74
2018-11-01T13:51:04.007Z,13.81
2018-11-01T13:53:43.761Z,13.85
2018-11-01T13:56:33.124Z,13.79
2018-11-01T13:59:15.622Z,13.83
2018-11-01T14:01:54.501Z,13.83
2018-11-01T14:04:23.661Z,13.82
2018-11-01T14:06:53.276Z,13.84
2018-11-01T14:09:26.637Z,13.83
2018-11-01T14:12:08.693Z,13.80
2018-11-01T14:14:47.535Z,13.80
2018-11-01T14:23:16.287Z,13.67
2018-11-01T14:25:54.423Z,13.64
2018-11-01T14:28:43.376Z,13.61
2018-11-01T14:31:26.094Z,13.60
2018-11-01T14:34:08.551Z,13.53
2018-11-01T14:36:51.445Z,13.48
2018-11-01T14:39:37.745Z,13.49
2018-11-01T14:42:18.533Z,13.59
2018-11-01T14:45:11.161Z,13.55
2018-11-01T14:47:49.494Z,13.61
2018-11-01T14:50:29.928Z,13.60
2018-11-01T14:53:10.967Z,13.63
2018-11-01T14:55:51.568Z,13.54
2018-11-01T14:58:29.610Z,13.57
2018-11-01T15:01:08.509Z,13.54
2018-11-01T15:03:47.931Z,13.46
2018-11-01T15:06:36.961Z,13.41
2018-11-01T15:09:18.329Z,13.40
2018-11-01T15:11:58.881Z,13.38
2018-11-01T15:14:37.653Z,13.36
2018-11-01T15:17:18.100Z,13.35
2018-11-01T15:19:56.240Z,13.32
2018-11-01T15:22:35.906Z,13.23
2018-11-01T15:25:24.891Z,13.23
2018-11-01T15:28:06.427Z,13.24
2018-11-01T15:30:47.276Z,13.26
2018-11-01T15:33:26.019Z,13.31
2018-11-01T15:36:07.782Z,13.32
2018-11-01T15:38:48.853Z,13.35
2018-11-01T15:41:26.852Z,13.36
2018-11-01T15:44:05.946Z,13.34
2018-11-01T15:46:49.250Z,13.33
2018-11-01T15:55:21.056Z,13.23
2018-11-01T15:58:06.328Z,13.24
2018-11-01T16:00:46.029Z,13.23
2018-11-01T16:03:25.773Z,13.27
2018-11-01T16:06:15.344Z,13.23
2018-11-01T16:08:59.084Z,13.23
2018-11-01T16:11:39.029Z,13.18
2018-11-01T16:14:20.005Z,13.23
2018-11-01T16:17:02.100Z,13.25
2018-11-01T16:19:43.710Z,13.30
2018-11-01T16:22:25.820Z,13.24
2018-11-01T16:25:09.592Z,13.26
2018-11-01T16:27:52.257Z,13.27
2018-11-01T16:30:38.497Z,13.25
2018-11-01T16:33:18.930Z,13.25
2018-11-01T16:36:03.117Z,13.28
2018-11-01T16:38:48.437Z,13.24
2018-11-01T16:41:32.938Z,13.23
2018-11-01T16:44:14.922Z,13.26
2018-11-01T16:46:55.083Z,13.25
2018-11-01T16:49:39.017Z,13.27
2018-11-01T16:52:24.755Z,13.25
2018-11-01T16:55:07.825Z,13.26
2018-11-01T16:57:47.913Z,13.24
2018-11-01T17:00:30.021Z,13.23
2018-11-01T17:03:10.972Z,13.18
2018-11-01T17:05:50.503Z,13.17
2018-11-01T17:08:32.571Z,13.20
2018-11-01T17:11:12.572Z,13.20
2018-11-01T17:13:57.214Z,13.13
2018-11-01T17:16:40.318Z,13.08
2018-11-01T17:19:20.020Z,13.08
2018-11-01T17:22:02.742Z,13.06
2018-11-01T17:24:42.161Z,13.11
2018-11-01T17:27:24.195Z,13.20
2018-11-01T17:30:04.285Z,13.11
2018-11-01T17:32:45.845Z,13.20
2018-11-01T17:35:34.055Z,13.31
2018-11-01T17:38:13.265Z,13.29
2018-11-01T17:40:54.302Z,13.24
2018-11-01T17:43:46.467Z,13.32
2018-11-01T17:46:29.539Z,13.35
2018-11-01T17:49:15.504Z,13.42
2018-11-01T17:51:56.490Z,13.45
2018-11-01T17:54:39.482Z,13.43
2018-11-01T17:57:26.069Z,13.44
2018-11-01T18:00:08.153Z,13.31
2018-11-01T18:02:47.920Z,13.42
2018-11-01T18:05:29.634Z,13.31
2018-11-01T18:08:10.284Z,13.47
2018-11-01T18:10:48.878Z,13.41
2018-11-01T18:13:31.160Z,13.50
2018-11-01T18:16:09.263Z,13.36
2018-11-01T18:18:50.439Z,13.37
2018-11-01T18:21:20.534Z,13.41
2018-11-01T18:23:50.073Z,13.40
2018-11-01T18:26:23.404Z,13.40
2018-11-01T18:28:52.829Z,13.47
2018-11-01T18:31:21.542Z,13.48
2018-11-01T18:33:50.289Z,13.44
2018-11-01T18:36:18.909Z,13.44
2018-11-01T18:38:48.545Z,13.43
2018-11-01T18:41:18.581Z,13.39
2018-11-01T18:43:47.756Z,13.39
2018-11-01T18:46:16.627Z,13.32
2018-11-01T18:48:45.244Z,13.24
2018-11-01T18:51:13.823Z,13.23
2018-11-01T18:53:43.074Z,13.15
2018-11-01T18:56:11.693Z,13.13
2018-11-01T18:58:40.666Z,13.14
2018-11-01T19:01:09.419Z,13.11
2018-11-01T19:03:40.516Z,13.14
2018-11-01T19:06:09.236Z,13.06
2018-11-01T19:08:41.374Z,13.09
2018-11-01T19:11:10.077Z,13.01
2018-11-01T19:13:39.463Z,13.01
2018-11-01T19:16:09.035Z,12.98
2018-11-01T19:18:40.569Z,12.95
2018-11-01T19:21:09.391Z,12.92
2018-11-01T19:23:38.092Z,12.91
2018-11-01T19:26:07.665Z,12.84
2018-11-01T19:28:37.051Z,12.81
2018-11-01T19:31:06.278Z,12.75
2018-11-01T19:33:34.929Z,12.71
2018-11-01T19:36:04.092Z,12.68
2018-11-01T19:38:33.558Z,12.65
2018-11-01T19:41:02.254Z,12.64
2018-11-01T19:43:30.920Z,12.62
2018-11-01T19:45:59.585Z,12.59
2018-11-01T19:48:28.499Z,12.56
2018-11-01T19:50:57.737Z,12.52
2018-11-01T19:53:26.360Z,12.48
2018-11-01T19:55:55.051Z,12.45
2018-11-01T19:58:24.196Z,12.44
2018-11-01T20:00:53.013Z,12.37
2018-11-01T20:03:21.574Z,12.30
2018-11-01T20:05:50.288Z,12.23
2018-11-01T20:08:19.165Z,12.28
2018-11-01T20:10:47.731Z,12.23
2018-11-01T20:13:16.420Z,12.21
2018-11-01T20:15:45.189Z,12.18
2018-11-01T20:18:13.978Z,12.09
2018-11-01T20:20:42.700Z,12.02
2018-11-01T20:23:11.420Z,11.93
2018-11-01T20:25:40.157Z,11.84
2018-11-01T20:28:08.705Z,11.76
2018-11-01T20:30:37.485Z,11.73
2018-11-01T20:33:06.973Z,11.58
2018-11-01T20:35:36.408Z,11.76
2018-11-01T20:38:07.601Z,11.59
2018-11-01T20:40:36.536Z,11.54
2018-11-01T20:43:05.684Z,11.47
2018-11-01T20:45:35.047Z,11.35
2018-11-01T20:48:03.771Z,11.36
2018-11-01T20:50:34.241Z,11.29
2018-11-01T20:53:03.387Z,11.38
2018-11-01T20:55:32.166Z,11.25
2018-11-01T20:58:01.009Z,11.18
2018-11-01T21:00:29.575Z,11.08
2018-11-01T21:02:58.248Z,10.95
2018-11-01T21:05:26.955Z,10.92
2018-11-01T21:07:56.378Z,10.81
2018-11-01T21:10:27.144Z,10.79
2018-11-01T21:12:56.053Z,10.68
2018-11-01T21:15:24.854Z,10.50
2018-11-01T21:18:00.993Z,10.18
2018-11-01T21:20:30.538Z,10.09
2018-11-01T21:23:07.036Z,10.14
2018-11-01T21:25:36.444Z,10.28
2018-11-01T21:28:05.816Z,10.34
2018-11-01T21:30:35.734Z,10.26
2018-11-01T21:33:04.518Z,10.24
2018-11-01T21:35:33.826Z,10.26
2018-11-01T21:38:03.080Z,10.22
2018-11-01T21:40:32.393Z,10.15
2018-11-01T21:43:01.638Z,10.10
2018-11-01T21:45:31.031Z,9.94
2018-11-01T21:47:59.618Z,9.89
2018-11-01T21:50:28.315Z,9.94
2018-11-01T21:52:57.344Z,9.90
2018-11-01T21:55:26.830Z,9.76
2018-11-01T21:57:58.332Z,9.70
2018-11-01T22:00:30.176Z,9.69
2018-11-01T22:03:00.364Z,9.47
2018-11-01T22:05:30.406Z,9.48
2018-11-01T22:08:03.151Z,9.56
2018-11-01T22:10:31.822Z,9.49
2018-11-01T22:13:02.122Z,9.43
2018-11-01T22:15:31.537Z,9.36
2018-11-01T22:18:04.405Z,9.22
2018-11-01T22:20:34.360Z,9.33
2018-11-01T22:23:04.150Z,9.32
2018-11-01T22:25:34.014Z,9.18
2018-11-01T22:28:03.934Z,9.15
2018-11-01T22:30:36.834Z,9.09
2018-11-01T22:33:06.089Z,9.13
2018-11-01T22:35:36.902Z,8.91
2018-11-01T22:38:13.200Z,8.91
2018-11-01T22:40:42.368Z,8.99
2018-11-01T22:43:11.320Z,9.10
2018-11-01T22:45:40.543Z,9.08
2018-11-01T22:48:10.814Z,9.03
2018-11-01T22:50:39.562Z,8.95
2018-11-01T22:53:08.342Z,8.99
2018-11-01T22:55:39.258Z,9.01
2018-11-01T22:58:08.659Z,8.87
2018-11-01T23:00:42.479Z,8.86
2018-11-01T23:03:14.549Z,8.88
2018-11-01T23:05:44.509Z,8.91
2018-11-01T23:08:17.984Z,9.01
2018-11-01T23:10:50.222Z,8.66
2018-11-01T23:13:19.529Z,8.73
2018-11-01T23:15:49.124Z,8.72
2018-11-01T23:18:19.857Z,8.74
2018-11-01T23:20:50.247Z,8.78
2018-11-01T23:23:21.355Z,8.74
2018-11-01T23:25:51.136Z,8.79
2018-11-01T23:28:23.869Z,8.80
2018-11-01T23:30:53.370Z,8.84
2018-11-01T23:33:21.998Z,8.79
2018-11-01T23:35:50.905Z,8.68
2018-11-01T23:38:32.425Z,8.57
2018-11-01T23:41:09.003Z,8.53
2018-11-01T23:43:43.584Z,8.48
2018-11-01T23:46:18.805Z,8.45
2018-11-01T23:48:53.490Z,8.30
2018-11-01T23:51:28.054Z,8.27
2018-11-01T23:53:59.503Z,8.31
2018-11-01T23:56:30.055Z,8.33
2018-11-01T23:58:59.119Z,8.00
